sensor_id;sensor_type;location;lat;lon;timestamp;pressure;altitude;pressure_sealevel;temperature;humidity
19286;BME280;9776;50.798;6.430;2023-02-15T00:01:06;101478.28;;;4.38;62.10
19286;BME280;9776;50.798;6.430;2023-02-15T00:03:35;101477.59;;;4.35;62.26
19286;BME280;9776;50.798;6.430;2023-02-15T00:06:01;101477.06;;;4.28;62.23
19286;BME280;9776;50.798;6.430;2023-02-15T00:08:28;101472.75;;;4.27;62.23
19286;BME280;9776;50.798;6.430;2023-02-15T00:11:03;101471.25;;;4.23;62.28
19286;BME280;9776;50.798;6.430;2023-02-15T00:13:30;101472.31;;;4.19;62.35
19286;BME280;9776;50.798;6.430;2023-02-15T00:16:01;101472.31;;;4.19;62.42
19286;BME280;9776;50.798;6.430;2023-02-15T00:18:27;101477.56;;;4.19;62.42
19286;BME280;9776;50.798;6.430;2023-02-15T00:20:55;101472.16;;;4.22;62.42
19286;BME280;9776;50.798;6.430;2023-02-15T00:23:22;101466.19;;;4.20;62.33
19286;BME280;9776;50.798;6.430;2023-02-15T00:25:49;101467.94;;;4.20;62.31
19286;BME280;9776;50.798;6.430;2023-02-15T00:28:16;101458.50;;;4.17;62.35
19286;BME280;9776;50.798;6.430;2023-02-15T00:30:43;101457.59;;;4.18;62.41
19286;BME280;9776;50.798;6.430;2023-02-15T00:33:09;101453.44;;;4.14;62.37
19286;BME280;9776;50.798;6.430;2023-02-15T00:35:36;101457.81;;;4.14;62.52
19286;BME280;9776;50.798;6.430;2023-02-15T00:38:04;101456.16;;;4.13;62.40
19286;BME280;9776;50.798;6.430;2023-02-15T00:40:31;101452.00;;;4.09;62.51
19286;BME280;9776;50.798;6.430;2023-02-15T00:42:58;101459.91;;;4.07;62.53
19286;BME280;9776;50.798;6.430;2023-02-15T00:45:25;101454.69;;;4.07;62.67
19286;BME280;9776;50.798;6.430;2023-02-15T00:47:51;101453.91;;;4.05;62.54
19286;BME280;9776;50.798;6.430;2023-02-15T00:50:18;101455.78;;;4.03;62.62
19286;BME280;9776;50.798;6.430;2023-02-15T00:52:45;101453.22;;;4.01;62.52
19286;BME280;9776;50.798;6.430;2023-02-15T00:55:13;101457.53;;;4.03;62.69
19286;BME280;9776;50.798;6.430;2023-02-15T00:57:39;101451.41;;;4.04;62.53
19286;BME280;9776;50.798;6.430;2023-02-15T01:00:07;101458.47;;;4.01;62.70
19286;BME280;9776;50.798;6.430;2023-02-15T01:02:34;101447.34;;;3.98;62.73
19286;BME280;9776;50.798;6.430;2023-02-15T01:05:01;101447.72;;;3.90;63.02
19286;BME280;9776;50.798;6.430;2023-02-15T01:07:27;101463.66;;;3.86;63.25
19286;BME280;9776;50.798;6.430;2023-02-15T01:09:54;101454.13;;;3.85;63.36
19286;BME280;9776;50.798;6.430;2023-02-15T01:12:22;101459.19;;;3.88;63.27
19286;BME280;9776;50.798;6.430;2023-02-15T01:14:49;101456.66;;;3.86;63.32
19286;BME280;9776;50.798;6.430;2023-02-15T01:17:16;101458.44;;;3.86;63.38
19286;BME280;9776;50.798;6.430;2023-02-15T01:19:43;101461.94;;;3.85;63.37
19286;BME280;9776;50.798;6.430;2023-02-15T01:22:09;101452.19;;;3.88;63.27
19286;BME280;9776;50.798;6.430;2023-02-15T01:24:36;101452.34;;;3.85;63.19
19286;BME280;9776;50.798;6.430;2023-02-15T01:27:03;101449.91;;;3.82;63.33
19286;BME280;9776;50.798;6.430;2023-02-15T01:29:31;101450.00;;;3.81;63.25
19286;BME280;9776;50.798;6.430;2023-02-15T01:31:58;101441.69;;;3.73;63.37
19286;BME280;9776;50.798;6.430;2023-02-15T01:34:24;101442.78;;;3.69;63.47
19286;BME280;9776;50.798;6.430;2023-02-15T01:36:51;101443.69;;;3.68;63.56
19286;BME280;9776;50.798;6.430;2023-02-15T01:39:18;101442.94;;;3.66;63.45
19286;BME280;9776;50.798;6.430;2023-02-15T01:41:45;101442.16;;;3.64;63.61
19286;BME280;9776;50.798;6.430;2023-02-15T01:44:48;101436.13;;;3.63;63.53
19286;BME280;9776;50.798;6.430;2023-02-15T01:47:18;101434.31;;;3.64;63.42
19286;BME280;9776;50.798;6.430;2023-02-15T01:49:48;101433.56;;;3.62;63.29
19286;BME280;9776;50.798;6.430;2023-02-15T01:52:20;101431.91;;;3.61;63.39
19286;BME280;9776;50.798;6.430;2023-02-15T01:54:47;101429.34;;;3.59;63.38
19286;BME280;9776;50.798;6.430;2023-02-15T01:57:17;101432.06;;;3.58;63.54
19286;BME280;9776;50.798;6.430;2023-02-15T01:59:51;101428.66;;;3.56;63.51
19286;BME280;9776;50.798;6.430;2023-02-15T02:02:20;101431.19;;;3.57;63.45
19286;BME280;9776;50.798;6.430;2023-02-15T02:04:51;101425.13;;;3.57;63.48
19286;BME280;9776;50.798;6.430;2023-02-15T02:07:21;101422.56;;;3.55;63.20
19286;BME280;9776;50.798;6.430;2023-02-15T02:09:49;101415.69;;;3.54;63.59
19286;BME280;9776;50.798;6.430;2023-02-15T02:12:17;101414.84;;;3.54;63.42
19286;BME280;9776;50.798;6.430;2023-02-15T02:14:45;101421.91;;;3.52;63.59
19286;BME280;9776;50.798;6.430;2023-02-15T02:17:17;101411.53;;;3.50;63.63
19286;BME280;9776;50.798;6.430;2023-02-15T02:20:26;101407.47;;;3.44;63.49
19286;BME280;9776;50.798;6.430;2023-02-15T02:23:14;101411.84;;;3.44;63.50
19286;BME280;9776;50.798;6.430;2023-02-15T02:29:16;101408.56;;;3.40;63.38
19286;BME280;9776;50.798;6.430;2023-02-15T02:32:17;101400.97;;;3.36;63.44
19286;BME280;9776;50.798;6.430;2023-02-15T02:34:59;101396.66;;;3.35;63.43
19286;BME280;9776;50.798;6.430;2023-02-15T02:37:30;101388.16;;;3.31;63.47
19286;BME280;9776;50.798;6.430;2023-02-15T02:40:07;101394.44;;;3.27;63.53
19286;BME280;9776;50.798;6.430;2023-02-15T02:42:40;101375.31;;;3.27;63.66
19286;BME280;9776;50.798;6.430;2023-02-15T02:45:10;101381.47;;;3.26;63.59
19286;BME280;9776;50.798;6.430;2023-02-15T02:47:43;101382.31;;;3.26;63.57
19286;BME280;9776;50.798;6.430;2023-02-15T02:50:16;101382.53;;;3.22;63.60
19286;BME280;9776;50.798;6.430;2023-02-15T02:52:45;101378.19;;;3.22;63.63
19286;BME280;9776;50.798;6.430;2023-02-15T02:55:16;101374.78;;;3.20;63.60
19286;BME280;9776;50.798;6.430;2023-02-15T02:57:52;101373.97;;;3.20;63.67
19286;BME280;9776;50.798;6.430;2023-02-15T03:00:21;101373.97;;;3.20;63.61
19286;BME280;9776;50.798;6.430;2023-02-15T03:02:52;101368.06;;;3.16;63.72
19286;BME280;9776;50.798;6.430;2023-02-15T03:05:26;101363.84;;;3.14;63.74
19286;BME280;9776;50.798;6.430;2023-02-15T03:07:55;101356.91;;;3.13;63.71
19286;BME280;9776;50.798;6.430;2023-02-15T03:10:23;101364.00;;;3.11;63.72
19286;BME280;9776;50.798;6.430;2023-02-15T03:12:51;101357.00;;;3.11;63.76
19286;BME280;9776;50.798;6.430;2023-02-15T03:15:20;101358.06;;;3.07;63.95
19286;BME280;9776;50.798;6.430;2023-02-15T03:17:52;101356.63;;;3.02;63.88
19286;BME280;9776;50.798;6.430;2023-02-15T03:20:26;101357.47;;;3.02;63.95
19286;BME280;9776;50.798;6.430;2023-02-15T03:22:57;101354.00;;;3.02;63.84
19286;BME280;9776;50.798;6.430;2023-02-15T03:25:27;101345.50;;;2.98;63.98
19286;BME280;9776;50.798;6.430;2023-02-15T03:27:59;101349.94;;;2.96;63.88
19286;BME280;9776;50.798;6.430;2023-02-15T03:30:29;101346.63;;;2.93;63.98
19286;BME280;9776;50.798;6.430;2023-02-15T03:32:58;101343.31;;;2.89;64.07
19286;BME280;9776;50.798;6.430;2023-02-15T03:35:31;101346.03;;;2.88;64.16
19286;BME280;9776;50.798;6.430;2023-02-15T03:38:00;101343.47;;;2.86;64.12
19286;BME280;9776;50.798;6.430;2023-02-15T03:40:33;101351.38;;;2.84;64.22
19286;BME280;9776;50.798;6.430;2023-02-15T03:43:22;101345.78;;;2.75;64.45
19286;BME280;9776;50.798;6.430;2023-02-15T03:45:52;101344.94;;;2.74;64.56
19286;BME280;9776;50.798;6.430;2023-02-15T03:48:25;101342.25;;;2.76;64.65
19286;BME280;9776;50.798;6.430;2023-02-15T03:50:58;101336.19;;;2.75;64.58
19286;BME280;9776;50.798;6.430;2023-02-15T03:53:45;101342.41;;;2.73;64.48
19286;BME280;9776;50.798;6.430;2023-02-15T03:56:13;101331.13;;;2.72;64.52
19286;BME280;9776;50.798;6.430;2023-02-15T03:58:39;101332.97;;;2.70;64.66
19286;BME280;9776;50.798;6.430;2023-02-15T04:01:26;101333.69;;;2.74;64.58
19286;BME280;9776;50.798;6.430;2023-02-15T04:04:26;101337.91;;;2.76;64.48
19286;BME280;9776;50.798;6.430;2023-02-15T04:06:56;101338.66;;;2.78;64.43
19286;BME280;9776;50.798;6.430;2023-02-15T04:09:22;101333.53;;;2.77;64.50
19286;BME280;9776;50.798;6.430;2023-02-15T04:12:07;101336.13;;;2.77;64.57
19286;BME280;9776;50.798;6.430;2023-02-15T04:14:34;101328.38;;;2.75;64.55
19286;BME280;9776;50.798;6.430;2023-02-15T04:17:18;101336.44;;;2.71;64.62
19286;BME280;9776;50.798;6.430;2023-02-15T04:19:44;101335.13;;;2.62;64.74
19286;BME280;9776;50.798;6.430;2023-02-15T04:22:30;101326.44;;;2.62;65.04
19286;BME280;9776;50.798;6.430;2023-02-15T04:25:14;101325.50;;;2.63;64.89
19286;BME280;9776;50.798;6.430;2023-02-15T04:27:44;101321.28;;;2.60;64.80
19286;BME280;9776;50.798;6.430;2023-02-15T04:30:13;101326.59;;;2.59;64.94
19286;BME280;9776;50.798;6.430;2023-02-15T04:32:40;101321.38;;;2.59;64.95
19286;BME280;9776;50.798;6.430;2023-02-15T04:35:08;101338.31;;;2.50;65.14
19286;BME280;9776;50.798;6.430;2023-02-15T04:37:36;101329.19;;;2.42;65.38
19286;BME280;9776;50.798;6.430;2023-02-15T04:40:04;101330.94;;;2.41;65.51
19286;BME280;9776;50.798;6.430;2023-02-15T04:42:31;101331.56;;;2.46;65.31
19286;BME280;9776;50.798;6.430;2023-02-15T04:44:58;101331.34;;;2.51;65.30
19286;BME280;9776;50.798;6.430;2023-02-15T04:47:25;101335.91;;;2.46;65.42
19286;BME280;9776;50.798;6.430;2023-02-15T04:49:52;101338.66;;;2.43;65.61
19286;BME280;9776;50.798;6.430;2023-02-15T04:52:18;101324.88;;;2.41;65.45
19286;BME280;9776;50.798;6.430;2023-02-15T04:54:46;101330.94;;;2.41;65.52
19286;BME280;9776;50.798;6.430;2023-02-15T04:57:13;101328.69;;;2.34;65.64
19286;BME280;9776;50.798;6.430;2023-02-15T04:59:40;101326.88;;;2.36;65.67
19286;BME280;9776;50.798;6.430;2023-02-15T05:02:07;101329.38;;;2.37;65.54
19286;BME280;9776;50.798;6.430;2023-02-15T05:04:34;101330.22;;;2.38;65.56
19286;BME280;9776;50.798;6.430;2023-02-15T05:07:01;101321.66;;;2.36;65.62
19286;BME280;9776;50.798;6.430;2023-02-15T05:09:27;101314.59;;;2.38;65.61
19286;BME280;9776;50.798;6.430;2023-02-15T05:11:55;101320.66;;;2.38;65.60
19286;BME280;9776;50.798;6.430;2023-02-15T05:14:22;101316.28;;;2.39;65.59
19286;BME280;9776;50.798;6.430;2023-02-15T05:16:49;101312.06;;;2.36;65.58
19286;BME280;9776;50.798;6.430;2023-02-15T05:19:16;101311.38;;;2.33;65.68
19286;BME280;9776;50.798;6.430;2023-02-15T05:21:42;101322.94;;;2.27;65.58
19286;BME280;9776;50.798;6.430;2023-02-15T05:24:09;101320.47;;;2.24;65.90
19286;BME280;9776;50.798;6.430;2023-02-15T05:26:50;101325.59;;;2.25;65.81
19286;BME280;9776;50.798;6.430;2023-02-15T05:29:35;101315.13;;;2.27;65.66
19286;BME280;9776;50.798;6.430;2023-02-15T05:32:02;101317.78;;;2.25;65.74
19286;BME280;9776;50.798;6.430;2023-02-15T05:34:29;101313.78;;;2.18;65.70
19286;BME280;9776;50.798;6.430;2023-02-15T05:36:56;101314.78;;;2.16;65.78
19286;BME280;9776;50.798;6.430;2023-02-15T05:39:23;101317.31;;;2.17;65.77
19286;BME280;9776;50.798;6.430;2023-02-15T05:41:51;101306.97;;;2.16;65.75
19286;BME280;9776;50.798;6.430;2023-02-15T05:44:22;101312.19;;;2.16;65.59
19286;BME280;9776;50.798;6.430;2023-02-15T05:46:50;101309.72;;;2.13;65.62
19286;BME280;9776;50.798;6.430;2023-02-15T05:49:17;101303.81;;;2.09;65.67
19286;BME280;9776;50.798;6.430;2023-02-15T05:51:44;101308.25;;;2.07;65.60
19286;BME280;9776;50.798;6.430;2023-02-15T05:54:10;101310.84;;;2.07;65.71
19286;BME280;9776;50.798;6.430;2023-02-15T05:56:37;101307.31;;;2.08;65.58
19286;BME280;9776;50.798;6.430;2023-02-15T05:59:04;101307.31;;;2.08;65.64
19286;BME280;9776;50.798;6.430;2023-02-15T06:01:31;101308.44;;;2.03;65.80
19286;BME280;9776;50.798;6.430;2023-02-15T06:03:59;101312.81;;;2.02;65.82
19286;BME280;9776;50.798;6.430;2023-02-15T06:06:26;101315.34;;;2.04;65.85
19286;BME280;9776;50.798;6.430;2023-02-15T06:08:52;101313.88;;;1.98;66.06
19286;BME280;9776;50.798;6.430;2023-02-15T06:11:19;101317.25;;;2.00;65.97
19286;BME280;9776;50.798;6.430;2023-02-15T06:13:46;101315.63;;;1.98;65.98
19286;BME280;9776;50.798;6.430;2023-02-15T06:16:12;101314.78;;;1.97;65.92
19286;BME280;9776;50.798;6.430;2023-02-15T06:18:41;101315.78;;;1.95;66.15
19286;BME280;9776;50.798;6.430;2023-02-15T06:21:09;101310.56;;;1.95;66.17
19286;BME280;9776;50.798;6.430;2023-02-15T06:23:36;101309.66;;;1.96;66.14
19286;BME280;9776;50.798;6.430;2023-02-15T06:26:03;101306.06;;;1.98;65.96
19286;BME280;9776;50.798;6.430;2023-02-15T06:28:29;101311.19;;;2.00;65.89
19286;BME280;9776;50.798;6.430;2023-02-15T06:30:57;101298.25;;;1.98;66.01
19286;BME280;9776;50.798;6.430;2023-02-15T06:33:24;101295.78;;;1.95;66.06
19286;BME280;9776;50.798;6.430;2023-02-15T06:35:50;101294.31;;;1.90;66.23
19286;BME280;9776;50.798;6.430;2023-02-15T06:38:19;101300.38;;;1.90;66.35
19286;BME280;9776;50.798;6.430;2023-02-15T06:40:46;101298.59;;;1.91;66.22
19286;BME280;9776;50.798;6.430;2023-02-15T06:43:13;101308.19;;;1.90;66.32
19286;BME280;9776;50.798;6.430;2023-02-15T06:45:41;101300.22;;;1.75;66.58
19286;BME280;9776;50.798;6.430;2023-02-15T06:48:07;101293.69;;;1.66;66.82
19286;BME280;9776;50.798;6.430;2023-02-15T06:50:35;101296.06;;;1.70;66.77
19286;BME280;9776;50.798;6.430;2023-02-15T06:53:01;101291.44;;;1.77;66.65
19286;BME280;9776;50.798;6.430;2023-02-15T06:55:30;101305.91;;;1.83;66.51
19286;BME280;9776;50.798;6.430;2023-02-15T06:57:56;101301.41;;;1.86;66.49
19286;BME280;9776;50.798;6.430;2023-02-15T07:00:23;101299.38;;;1.93;66.48
19286;BME280;9776;50.798;6.430;2023-02-15T07:02:53;101298.31;;;1.97;66.34
19286;BME280;9776;50.798;6.430;2023-02-15T07:05:23;101298.13;;;2.01;66.32
19286;BME280;9776;50.798;6.430;2023-02-15T07:07:50;101305.66;;;2.07;66.16
19286;BME280;9776;50.798;6.430;2023-02-15T07:10:17;101302.94;;;2.09;66.18
19286;BME280;9776;50.798;6.430;2023-02-15T07:12:45;101307.97;;;2.13;66.14
19286;BME280;9776;50.798;6.430;2023-02-15T07:15:13;101301.75;;;2.16;66.09
19286;BME280;9776;50.798;6.430;2023-02-15T07:17:41;101305.50;;;2.10;66.30
19286;BME280;9776;50.798;6.430;2023-02-15T07:20:10;101291.53;;;2.11;66.36
19286;BME280;9776;50.798;6.430;2023-02-15T07:22:37;101287.88;;;2.15;66.22
19286;BME280;9776;50.798;6.430;2023-02-15T07:25:04;101291.06;;;2.22;66.20
19286;BME280;9776;50.798;6.430;2023-02-15T07:27:32;101286.59;;;2.24;66.15
19286;BME280;9776;50.798;6.430;2023-02-15T07:30:00;101286.38;;;2.28;66.10
19286;BME280;9776;50.798;6.430;2023-02-15T07:32:28;101279.22;;;2.34;66.10
19286;BME280;9776;50.798;6.430;2023-02-15T07:34:56;101286.88;;;2.37;66.02
19286;BME280;9776;50.798;6.430;2023-02-15T07:37:23;101281.50;;;2.40;66.07
19286;BME280;9776;50.798;6.430;2023-02-15T07:39:49;101285.59;;;2.45;66.07
19286;BME280;9776;50.798;6.430;2023-02-15T07:42:16;101279.38;;;2.48;65.95
19286;BME280;9776;50.798;6.430;2023-02-15T07:44:45;101282.75;;;2.50;66.02
19286;BME280;9776;50.798;6.430;2023-02-15T07:47:13;101273.53;;;2.43;66.18
19286;BME280;9776;50.798;6.430;2023-02-15T07:49:40;101277.28;;;2.37;66.35
19286;BME280;9776;50.798;6.430;2023-02-15T07:52:07;101269.31;;;2.40;66.40
19286;BME280;9776;50.798;6.430;2023-02-15T07:54:33;101264.75;;;2.45;66.25
19286;BME280;9776;50.798;6.430;2023-02-15T07:57:00;101273.47;;;2.44;66.34
19286;BME280;9776;50.798;6.430;2023-02-15T07:59:27;101264.03;;;2.42;66.25
19286;BME280;9776;50.798;6.430;2023-02-15T08:01:54;101258.84;;;2.42;66.44
19286;BME280;9776;50.798;6.430;2023-02-15T08:04:23;101259.28;;;2.50;66.38
19286;BME280;9776;50.798;6.430;2023-02-15T08:06:52;101252.69;;;2.60;66.29
19286;BME280;9776;50.798;6.430;2023-02-15T08:09:19;101247.16;;;2.66;66.26
19286;BME280;9776;50.798;6.430;2023-02-15T08:11:46;101248.47;;;2.74;66.13
19286;BME280;9776;50.798;6.430;2023-02-15T08:14:15;101250.25;;;2.74;66.18
19286;BME280;9776;50.798;6.430;2023-02-15T08:16:43;101245.19;;;2.71;66.40
19286;BME280;9776;50.798;6.430;2023-02-15T08:19:12;101257.13;;;2.75;66.50
19286;BME280;9776;50.798;6.430;2023-02-15T08:21:42;101245.34;;;2.85;66.38
19286;BME280;9776;50.798;6.430;2023-02-15T08:24:10;101254.47;;;2.94;66.19
19286;BME280;9776;50.798;6.430;2023-02-15T08:26:39;101252.34;;;3.00;66.16
19286;BME280;9776;50.798;6.430;2023-02-15T08:29:07;101251.13;;;3.07;66.09
19286;BME280;9776;50.798;6.430;2023-02-15T08:31:34;101249.75;;;3.17;66.07
19286;BME280;9776;50.798;6.430;2023-02-15T08:34:03;101247.41;;;3.28;65.99
19286;BME280;9776;50.798;6.430;2023-02-15T08:36:30;101236.56;;;3.36;65.90
19286;BME280;9776;50.798;6.430;2023-02-15T08:39:00;101236.81;;;3.47;65.83
19286;BME280;9776;50.798;6.430;2023-02-15T08:41:30;101246.78;;;3.56;65.75
19286;BME280;9776;50.798;6.430;2023-02-15T08:43:58;101247.13;;;3.66;65.70
19286;BME280;9776;50.798;6.430;2023-02-15T08:46:27;101243.19;;;3.74;65.65
19286;BME280;9776;50.798;6.430;2023-02-15T08:48:54;101239.38;;;3.80;65.67
19286;BME280;9776;50.798;6.430;2023-02-15T08:51:23;101250.84;;;3.93;65.64
19286;BME280;9776;50.798;6.430;2023-02-15T08:53:52;101247.47;;;4.07;65.52
19286;BME280;9776;50.798;6.430;2023-02-15T08:56:23;101245.78;;;4.21;65.25
19286;BME280;9776;50.798;6.430;2023-02-15T08:58:51;101245.84;;;4.35;65.15
19286;BME280;9776;50.798;6.430;2023-02-15T09:01:19;101241.50;;;4.50;65.10
19286;BME280;9776;50.798;6.430;2023-02-15T09:03:47;101246.66;;;4.66;64.95
19286;BME280;9776;50.798;6.430;2023-02-15T09:06:15;101243.22;;;4.79;64.86
19286;BME280;9776;50.798;6.430;2023-02-15T09:08:42;101247.00;;;4.89;64.73
19286;BME280;9776;50.798;6.430;2023-02-15T09:11:10;101239.09;;;5.05;64.67
19286;BME280;9776;50.798;6.430;2023-02-15T09:13:39;101242.53;;;5.20;64.45
19286;BME280;9776;50.798;6.430;2023-02-15T09:16:08;101241.78;;;5.32;64.30
19286;BME280;9776;50.798;6.430;2023-02-15T09:18:37;101244.59;;;5.43;64.15
19286;BME280;9776;50.798;6.430;2023-02-15T09:21:05;101238.59;;;5.55;64.06
19286;BME280;9776;50.798;6.430;2023-02-15T09:23:33;101239.53;;;5.68;63.82
19286;BME280;9776;50.798;6.430;2023-02-15T09:26:03;101243.72;;;5.85;63.75
19286;BME280;9776;50.798;6.430;2023-02-15T09:28:30;101239.38;;;5.98;63.51
19286;BME280;9776;50.798;6.430;2023-02-15T09:31:06;101237.69;;;6.11;63.20
19286;BME280;9776;50.798;6.430;2023-02-15T09:33:34;101235.00;;;6.25;63.03
19286;BME280;9776;50.798;6.430;2023-02-15T09:36:01;101227.06;;;6.39;62.76
19286;BME280;9776;50.798;6.430;2023-02-15T09:38:28;101229.63;;;6.53;62.70
19286;BME280;9776;50.798;6.430;2023-02-15T09:41:06;101221.69;;;6.67;62.40
19286;BME280;9776;50.798;6.430;2023-02-15T09:43:42;101225.06;;;6.82;62.02
19286;BME280;9776;50.798;6.430;2023-02-15T09:46:22;101228.63;;;6.94;61.89
19286;BME280;9776;50.798;6.430;2023-02-15T09:48:56;101229.69;;;7.04;61.68
19286;BME280;9776;50.798;6.430;2023-02-15T09:54:49;101233.66;;;7.34;61.29
19286;BME280;9776;50.798;6.430;2023-02-15T09:57:27;101236.16;;;7.49;60.96
19286;BME280;9776;50.798;6.430;2023-02-15T10:00:04;101225.72;;;7.60;61.04
19286;BME280;9776;50.798;6.430;2023-02-15T10:02:45;101233.22;;;7.89;60.78
19286;BME280;9776;50.798;6.430;2023-02-15T10:05:24;101223.75;;;8.93;58.81
19286;BME280;9776;50.798;6.430;2023-02-15T10:08:14;101219.81;;;10.62;55.43
19286;BME280;9776;50.798;6.430;2023-02-15T10:10:53;101222.72;;;12.58;51.28
19286;BME280;9776;50.798;6.430;2023-02-15T10:13:29;101220.09;;;14.23;47.80
19286;BME280;9776;50.798;6.430;2023-02-15T10:16:08;101222.00;;;15.43;45.65
19286;BME280;9776;50.798;6.430;2023-02-15T10:18:51;101234.66;;;16.41;43.57
19286;BME280;9776;50.798;6.430;2023-02-15T10:21:30;101227.97;;;17.18;42.30
19286;BME280;9776;50.798;6.430;2023-02-15T10:24:39;101229.09;;;17.86;41.00
19286;BME280;9776;50.798;6.430;2023-02-15T10:27:12;101224.53;;;18.48;40.18
19286;BME280;9776;50.798;6.430;2023-02-15T10:29:44;101222.47;;;18.73;39.59
19286;BME280;9776;50.798;6.430;2023-02-15T10:32:22;101234.72;;;18.90;38.91
19286;BME280;9776;50.798;6.430;2023-02-15T10:34:54;101223.84;;;19.06;38.74
19286;BME280;9776;50.798;6.430;2023-02-15T10:37:43;101222.03;;;18.69;39.01
19286;BME280;9776;50.798;6.430;2023-02-15T10:40:19;101213.59;;;18.58;39.29
19286;BME280;9776;50.798;6.430;2023-02-15T10:43:02;101217.13;;;18.28;39.53
19286;BME280;9776;50.798;6.430;2023-02-15T10:45:41;101208.41;;;18.34;39.64
19286;BME280;9776;50.798;6.430;2023-02-15T10:48:21;101197.41;;;18.74;38.90
19286;BME280;9776;50.798;6.430;2023-02-15T10:50:52;101206.78;;;19.07;38.37
19286;BME280;9776;50.798;6.430;2023-02-15T10:53:40;101207.25;;;19.25;37.88
19286;BME280;9776;50.798;6.430;2023-02-15T10:56:18;101199.97;;;19.49;37.71
19286;BME280;9776;50.798;6.430;2023-02-15T10:59:00;101195.38;;;19.93;36.61
19286;BME280;9776;50.798;6.430;2023-02-15T11:01:34;101196.44;;;20.13;36.26
19286;BME280;9776;50.798;6.430;2023-02-15T11:07:03;101187.22;;;20.86;35.22
19286;BME280;9776;50.798;6.430;2023-02-15T11:09:37;101185.84;;;20.69;35.56
19286;BME280;9776;50.798;6.430;2023-02-15T11:12:08;101187.63;;;20.89;35.09
19286;BME280;9776;50.798;6.430;2023-02-15T11:14:41;101187.88;;;21.63;34.23
19286;BME280;9776;50.798;6.430;2023-02-15T11:17:14;101177.97;;;22.31;33.12
19286;BME280;9776;50.798;6.430;2023-02-15T11:19:48;101182.97;;;22.73;32.51
19286;BME280;9776;50.798;6.430;2023-02-15T11:22:18;101171.75;;;22.96;32.21
19286;BME280;9776;50.798;6.430;2023-02-15T11:24:46;101173.44;;;22.90;32.48
19286;BME280;9776;50.798;6.430;2023-02-15T11:27:19;101173.88;;;23.58;31.55
19286;BME280;9776;50.798;6.430;2023-02-15T11:29:54;101171.75;;;23.66;31.31
19286;BME280;9776;50.798;6.430;2023-02-15T11:32:23;101157.16;;;23.36;31.89
19286;BME280;9776;50.798;6.430;2023-02-15T11:34:53;101166.38;;;22.96;32.37
19286;BME280;9776;50.798;6.430;2023-02-15T11:37:28;101158.09;;;22.91;32.62
19286;BME280;9776;50.798;6.430;2023-02-15T11:39:57;101160.59;;;22.79;32.80
19286;BME280;9776;50.798;6.430;2023-02-15T11:42:26;101141.91;;;23.04;32.64
19286;BME280;9776;50.798;6.430;2023-02-15T11:44:59;101143.69;;;23.43;32.16
19286;BME280;9776;50.798;6.430;2023-02-15T11:47:28;101145.88;;;23.59;31.93
19286;BME280;9776;50.798;6.430;2023-02-15T11:49:56;101134.06;;;23.98;31.39
19286;BME280;9776;50.798;6.430;2023-02-15T11:52:24;101133.88;;;24.73;30.14
19286;BME280;9776;50.798;6.430;2023-02-15T11:54:51;101130.41;;;25.46;29.57
19286;BME280;9776;50.798;6.430;2023-02-15T11:57:23;101128.03;;;25.85;28.77
19286;BME280;9776;50.798;6.430;2023-02-15T11:59:57;101116.53;;;26.02;28.79
19286;BME280;9776;50.798;6.430;2023-02-15T12:02:25;101115.94;;;26.41;28.33
19286;BME280;9776;50.798;6.430;2023-02-15T12:04:58;101111.25;;;26.71;27.69
19286;BME280;9776;50.798;6.430;2023-02-15T12:07:30;101103.69;;;26.96;27.63
19286;BME280;9776;50.798;6.430;2023-02-15T12:10:03;101115.44;;;27.14;27.29
19286;BME280;9776;50.798;6.430;2023-02-15T12:12:33;101111.63;;;27.38;27.18
19286;BME280;9776;50.798;6.430;2023-02-15T12:15:02;101112.44;;;27.78;26.44
19286;BME280;9776;50.798;6.430;2023-02-15T12:17:33;101103.03;;;27.29;26.70
19286;BME280;9776;50.798;6.430;2023-02-15T12:20:03;101107.81;;;26.64;27.41
19286;BME280;9776;50.798;6.430;2023-02-15T12:22:33;101100.28;;;26.78;26.77
19286;BME280;9776;50.798;6.430;2023-02-15T12:25:11;101101.91;;;26.44;27.06
19286;BME280;9776;50.798;6.430;2023-02-15T12:27:46;101103.09;;;27.06;26.58
19286;BME280;9776;50.798;6.430;2023-02-15T12:30:19;101095.47;;;27.31;26.40
19286;BME280;9776;50.798;6.430;2023-02-15T12:32:49;101086.06;;;27.22;26.31
19286;BME280;9776;50.798;6.430;2023-02-15T12:35:21;101089.44;;;27.41;26.14
19286;BME280;9776;50.798;6.430;2023-02-15T12:37:56;101079.28;;;27.48;25.95
19286;BME280;9776;50.798;6.430;2023-02-15T12:40:25;101074.22;;;27.51;26.13
19286;BME280;9776;50.798;6.430;2023-02-15T12:42:53;101076.59;;;27.36;26.28
19286;BME280;9776;50.798;6.430;2023-02-15T12:45:24;101071.09;;;27.59;25.88
19286;BME280;9776;50.798;6.430;2023-02-15T12:48:09;101073.63;;;27.94;25.47
19286;BME280;9776;50.798;6.430;2023-02-15T12:50:36;101070.63;;;27.63;26.00
19286;BME280;9776;50.798;6.430;2023-02-15T12:53:08;101070.50;;;26.89;26.28
19286;BME280;9776;50.798;6.430;2023-02-15T12:55:49;101065.19;;;26.71;26.77
19286;BME280;9776;50.798;6.430;2023-02-15T12:58:18;101061.94;;;27.21;26.06
19286;BME280;9776;50.798;6.430;2023-02-15T13:00:46;101063.56;;;27.22;26.19
19286;BME280;9776;50.798;6.430;2023-02-15T13:03:18;101064.38;;;26.82;26.70
19286;BME280;9776;50.798;6.430;2023-02-15T13:05:48;101061.41;;;27.47;26.07
19286;BME280;9776;50.798;6.430;2023-02-15T13:08:19;101057.84;;;27.91;25.55
19286;BME280;9776;50.798;6.430;2023-02-15T13:10:54;101053.09;;;27.98;25.43
19286;BME280;9776;50.798;6.430;2023-02-15T13:13:24;101051.84;;;28.23;25.09
19286;BME280;9776;50.798;6.430;2023-02-15T13:15:54;101047.44;;;28.55;24.76
19286;BME280;9776;50.798;6.430;2023-02-15T13:18:29;101041.97;;;28.50;24.87
19286;BME280;9776;50.798;6.430;2023-02-15T13:21:00;101036.03;;;28.53;24.98
19286;BME280;9776;50.798;6.430;2023-02-15T13:23:33;101026.94;;;28.26;25.40
19286;BME280;9776;50.798;6.430;2023-02-15T13:26:04;101036.25;;;28.13;25.07
19286;BME280;9776;50.798;6.430;2023-02-15T13:28:37;101025.41;;;27.68;25.50
19286;BME280;9776;50.798;6.430;2023-02-15T13:31:12;101025.56;;;27.05;26.62
19286;BME280;9776;50.798;6.430;2023-02-15T13:33:42;101031.72;;;27.29;26.17
19286;BME280;9776;50.798;6.430;2023-02-15T13:36:15;101031.56;;;27.47;25.74